createdAt,value
2023-04-16T00:02:02.311Z,100.00
2023-04-16T00:04:29.537Z,100.00
2023-04-16T00:06:56.804Z,100.00
2023-04-16T00:09:23.633Z,100.00
2023-04-16T00:11:50.656Z,100.00
2023-04-16T00:14:17.671Z,100.00
2023-04-16T00:16:44.773Z,100.00
2023-04-16T00:19:12.275Z,100.00
2023-04-16T00:21:39.394Z,100.00
2023-04-16T00:24:06.192Z,100.00
2023-04-16T00:26:33.342Z,100.00
2023-04-16T00:29:00.660Z,100.00
2023-04-16T00:31:29.405Z,100.00
2023-04-16T00:33:56.807Z,100.00
2023-04-16T00:36:24.617Z,100.00
2023-04-16T00:38:51.707Z,100.00
2023-04-16T00:41:19.003Z,100.00
2023-04-16T00:43:46.508Z,100.00
2023-04-16T00:46:13.828Z,100.00
2023-04-16T00:48:41.866Z,100.00
2023-04-16T00:51:10.208Z,100.00
2023-04-16T00:53:37.632Z,100.00
2023-04-16T00:56:06.842Z,100.00
2023-04-16T00:58:35.360Z,100.00
2023-04-16T01:01:02.902Z,100.00
2023-04-16T01:03:50.163Z,100.00
2023-04-16T01:06:18.280Z,100.00
2023-04-16T01:08:46.780Z,100.00
2023-04-16T01:11:15.362Z,100.00
2023-04-16T01:13:42.530Z,100.00
2023-04-16T01:16:11.314Z,100.00
2023-04-16T01:18:38.890Z,100.00
2023-04-16T01:21:06.155Z,100.00
2023-04-16T01:23:33.313Z,100.00
2023-04-16T01:26:00.449Z,100.00
2023-04-16T01:28:27.448Z,100.00
2023-04-16T01:30:54.386Z,100.00
2023-04-16T01:33:56.337Z,100.00
2023-04-16T01:36:23.847Z,100.00
2023-04-16T01:38:50.840Z,100.00
2023-04-16T01:41:17.990Z,100.00
2023-04-16T01:43:44.930Z,100.00
2023-04-16T01:46:18.253Z,100.00
2023-04-16T01:48:45.670Z,100.00
2023-04-16T01:51:12.771Z,100.00
2023-04-16T01:53:39.705Z,100.00
2023-04-16T01:56:07.063Z,100.00
2023-04-16T01:58:34.449Z,100.00
2023-04-16T02:01:01.713Z,100.00
2023-04-16T02:03:28.876Z,100.00
2023-04-16T02:05:56.168Z,100.00
2023-04-16T02:08:23.444Z,100.00
2023-04-16T02:10:50.973Z,100.00
2023-04-16T02:13:17.871Z,100.00
2023-04-16T02:15:48.593Z,100.00
2023-04-16T02:18:19.794Z,100.00
2023-04-16T02:20:49.670Z,100.00
2023-04-16T02:23:17.709Z,100.00
2023-04-16T02:25:47.585Z,100.00
2023-04-16T02:28:17.012Z,100.00
2023-04-16T02:30:45.774Z,100.00
2023-04-16T02:33:14.795Z,100.00
2023-04-16T02:35:52.107Z,100.00
2023-04-16T02:38:19.243Z,100.00
2023-04-16T02:40:46.396Z,100.00
2023-04-16T02:43:13.428Z,100.00
2023-04-16T02:45:40.741Z,100.00
2023-04-16T02:48:09.154Z,100.00
2023-04-16T02:50:36.277Z,100.00
2023-04-16T02:53:04.548Z,100.00
2023-04-16T02:55:31.468Z,100.00
2023-04-16T02:57:58.479Z,100.00
2023-04-16T03:00:25.731Z,100.00
2023-04-16T03:02:53.106Z,100.00
2023-04-16T03:05:20.127Z,100.00
2023-04-16T03:07:47.288Z,100.00
2023-04-16T03:10:15.510Z,100.00
2023-04-16T03:12:42.484Z,100.00
2023-04-16T03:15:09.923Z,100.00
2023-04-16T03:17:37.044Z,100.00
2023-04-16T03:20:05.099Z,100.00
2023-04-16T03:22:32.128Z,100.00
2023-04-16T03:24:59.266Z,100.00
2023-04-16T03:27:26.433Z,100.00
2023-04-16T03:29:53.508Z,100.00
2023-04-16T03:32:20.578Z,100.00
2023-04-16T03:34:47.685Z,100.00
2023-04-16T03:37:14.604Z,100.00
2023-04-16T03:39:41.900Z,100.00
2023-04-16T03:42:11.193Z,100.00
2023-04-16T03:44:38.035Z,100.00
2023-04-16T03:47:05.100Z,100.00
2023-04-16T03:49:32.113Z,100.00
2023-04-16T03:51:59.620Z,100.00
2023-04-16T03:54:27.199Z,100.00
2023-04-16T03:57:06.185Z,100.00
2023-04-16T03:59:33.633Z,100.00
2023-04-16T04:02:00.942Z,100.00
2023-04-16T04:04:28.171Z,100.00
2023-04-16T04:06:55.123Z,100.00
2023-04-16T04:09:23.228Z,100.00
2023-04-16T04:11:50.660Z,100.00
2023-04-16T04:14:18.040Z,100.00
2023-04-16T04:16:44.999Z,100.00
2023-04-16T04:19:12.697Z,100.00
2023-04-16T04:21:39.688Z,100.00
2023-04-16T04:24:06.987Z,100.00
2023-04-16T04:26:34.289Z,100.00
2023-04-16T04:29:01.479Z,100.00
2023-04-16T04:31:29.983Z,100.00
2023-04-16T04:33:57.084Z,100.00
2023-04-16T04:36:24.428Z,100.00
2023-04-16T04:38:51.689Z,100.00
2023-04-16T04:41:20.131Z,100.00
2023-04-16T04:43:47.519Z,100.00
2023-04-16T04:46:14.701Z,100.00
2023-04-16T04:48:41.706Z,100.00
2023-04-16T04:51:09.220Z,100.00
2023-04-16T04:53:36.483Z,100.00
2023-04-16T04:56:12.348Z,100.00
2023-04-16T04:58:41.546Z,100.00
2023-04-16T05:01:08.756Z,100.00
2023-04-16T05:03:36.138Z,100.00
2023-04-16T05:06:03.232Z,100.00
2023-04-16T05:08:30.034Z,100.00
2023-04-16T05:10:57.123Z,100.00
2023-04-16T05:13:24.176Z,100.00
2023-04-16T05:15:51.052Z,100.00
2023-04-16T05:18:18.110Z,100.00
2023-04-16T05:20:45.509Z,100.00
2023-04-16T05:23:12.512Z,100.00
2023-04-16T05:25:39.398Z,100.00
2023-04-16T05:28:06.133Z,100.00
2023-04-16T05:30:33.127Z,100.00
2023-04-16T05:33:00.272Z,100.00
2023-04-16T05:35:27.857Z,100.00
2023-04-16T05:37:54.967Z,100.00
2023-04-16T05:40:22.121Z,100.00
2023-04-16T05:42:49.434Z,99.57
2023-04-16T05:45:16.556Z,99.30
2023-04-16T05:47:43.850Z,98.89
2023-04-16T05:50:11.165Z,98.79
2023-04-16T05:52:38.900Z,98.24
2023-04-16T05:55:07.404Z,97.34
2023-04-16T05:57:34.531Z,96.94
2023-04-16T06:00:01.630Z,96.54
2023-04-16T06:02:38.910Z,97.11
2023-04-16T06:05:06.230Z,96.58
2023-04-16T06:07:33.029Z,95.88
2023-04-16T06:10:00.170Z,95.47
2023-04-16T06:12:27.654Z,95.44
2023-04-16T06:14:55.097Z,96.40
2023-04-16T06:17:22.752Z,96.73
2023-04-16T06:19:49.767Z,95.76
2023-04-16T06:22:16.814Z,95.24
2023-04-16T06:24:43.925Z,95.22
2023-04-16T06:27:11.117Z,94.78
2023-04-16T06:29:41.523Z,94.12
2023-04-16T06:32:09.380Z,94.55
2023-04-16T06:34:37.639Z,95.37
2023-04-16T06:37:04.656Z,94.68
2023-04-16T06:39:31.958Z,94.95
2023-04-16T06:41:59.132Z,93.93
2023-04-16T06:44:26.162Z,93.44
2023-04-16T06:46:53.745Z,92.33
2023-04-16T06:49:21.571Z,92.96
2023-04-16T06:51:48.458Z,91.77
2023-04-16T06:54:15.827Z,90.14
2023-04-16T06:56:42.906Z,90.55
2023-04-16T06:59:09.846Z,90.77
2023-04-16T07:01:37.084Z,89.88
2023-04-16T07:04:04.539Z,87.36
2023-04-16T07:06:32.221Z,85.15
2023-04-16T07:08:59.223Z,84.62
2023-04-16T07:11:26.863Z,83.99
2023-04-16T07:13:54.130Z,83.62
2023-04-16T07:16:21.453Z,83.68
2023-04-16T07:18:48.520Z,83.75
2023-04-16T07:21:15.787Z,79.63
2023-04-16T07:23:42.825Z,81.46
2023-04-16T07:26:09.914Z,79.90
2023-04-16T07:28:36.958Z,77.14
2023-04-16T07:31:04.423Z,78.81
2023-04-16T07:33:31.278Z,74.19
2023-04-16T07:35:58.324Z,74.60
2023-04-16T07:38:25.420Z,73.55
2023-04-16T07:40:52.250Z,72.63
2023-04-16T07:43:19.145Z,71.88
2023-04-16T07:45:46.223Z,71.74
2023-04-16T07:48:13.329Z,72.10
2023-04-16T07:50:41.854Z,72.00
2023-04-16T07:53:08.749Z,72.19
2023-04-16T07:55:35.730Z,71.93
2023-04-16T07:58:03.074Z,68.57
2023-04-16T08:00:29.971Z,70.00
2023-04-16T08:02:57.174Z,70.00
2023-04-16T08:05:24.322Z,69.12
2023-04-16T08:07:51.486Z,69.20
2023-04-16T08:10:18.431Z,69.50
2023-04-16T08:12:45.562Z,70.50
2023-04-16T08:15:12.485Z,69.64
2023-04-16T08:17:39.477Z,69.80
2023-04-16T08:20:07.028Z,69.90
2023-04-16T08:22:34.163Z,68.78
2023-04-16T08:25:01.126Z,67.31
2023-04-16T08:27:28.210Z,66.35
2023-04-16T08:29:55.070Z,66.94
2023-04-16T08:32:22.023Z,65.84
2023-04-16T08:34:49.089Z,64.88
2023-04-16T08:37:16.209Z,64.76
2023-04-16T08:39:43.105Z,62.18
2023-04-16T08:42:21.477Z,62.21
2023-04-16T08:44:51.038Z,61.45
2023-04-16T08:47:18.189Z,63.33
2023-04-16T08:49:46.298Z,61.76
2023-04-16T08:52:20.447Z,62.73
2023-04-16T08:54:58.590Z,60.48
2023-04-16T08:57:36.174Z,60.93
2023-04-16T09:00:04.216Z,61.23
2023-04-16T09:02:31.925Z,62.79
2023-04-16T09:05:00.381Z,63.34
2023-04-16T09:07:29.112Z,61.86
2023-04-16T09:09:59.795Z,61.76
2023-04-16T09:12:28.071Z,63.14
2023-04-16T09:14:57.267Z,63.20
2023-04-16T09:17:24.313Z,63.57
2023-04-16T09:19:51.411Z,61.63
2023-04-16T09:22:18.509Z,63.60
2023-04-16T09:24:45.401Z,64.56
2023-04-16T09:27:13.420Z,64.56
2023-04-16T09:29:41.324Z,64.88
2023-04-16T09:32:10.859Z,66.02
2023-04-16T09:34:58.119Z,65.95
2023-04-16T09:37:26.853Z,68.89
2023-04-16T09:40:01.891Z,71.41
2023-04-16T09:42:30.985Z,70.93
2023-04-16T09:45:00.500Z,71.05
2023-04-16T09:47:43.856Z,71.83
2023-04-16T09:50:18.198Z,72.76
2023-04-16T09:52:50.073Z,72.61
2023-04-16T09:55:16.892Z,73.34
2023-04-16T09:57:44.121Z,72.28
2023-04-16T10:00:11.626Z,74.13
2023-04-16T10:02:42.696Z,72.62
2023-04-16T10:05:10.017Z,74.75
2023-04-16T10:07:37.896Z,75.10
2023-04-16T10:10:05.494Z,73.04
2023-04-16T10:12:35.658Z,73.85
2023-04-16T10:15:02.656Z,73.90
2023-04-16T10:17:31.370Z,74.48
2023-04-16T10:19:59.139Z,77.19
2023-04-16T10:22:26.827Z,79.22
2023-04-16T10:24:55.068Z,81.19
2023-04-16T10:27:22.803Z,82.25
2023-04-16T10:29:50.903Z,83.86
2023-04-16T10:32:20.874Z,84.95
2023-04-16T10:34:48.450Z,85.94
2023-04-16T10:37:18.138Z,87.57
2023-04-16T10:39:45.379Z,87.94
2023-04-16T10:42:13.139Z,87.90
2023-04-16T10:44:44.432Z,88.71
2023-04-16T10:47:13.554Z,90.08
2023-04-16T10:49:41.823Z,91.27
2023-04-16T10:52:12.236Z,91.45
2023-04-16T10:54:40.062Z,92.91
2023-04-16T10:57:15.016Z,93.66
2023-04-16T10:59:43.928Z,95.04
2023-04-16T11:02:19.755Z,94.54
2023-04-16T11:04:48.459Z,91.51
2023-04-16T11:07:33.026Z,90.08
2023-04-16T11:10:05.553Z,89.06
2023-04-16T11:12:40.021Z,86.54
2023-04-16T11:15:11.745Z,86.30
2023-04-16T11:17:46.626Z,87.05
2023-04-16T11:20:22.321Z,86.23
2023-04-16T11:22:51.007Z,85.20
2023-04-16T11:25:31.869Z,82.67
2023-04-16T11:28:01.658Z,80.79
2023-04-16T11:30:36.577Z,77.31
2023-04-16T11:33:04.798Z,75.97
2023-04-16T11:35:32.505Z,75.33
2023-04-16T11:37:59.620Z,75.91
2023-04-16T11:40:31.199Z,74.87
2023-04-16T11:46:55.490Z,76.17
2023-04-16T11:49:32.706Z,75.01
2023-04-16T11:54:50.688Z,73.67
2023-04-16T11:57:30.901Z,74.96
2023-04-16T12:00:02.186Z,72.91
2023-04-16T12:02:45.362Z,70.96
2023-04-16T12:05:39.155Z,69.61
2023-04-16T12:08:08.813Z,70.04
2023-04-16T12:10:38.115Z,70.63
2023-04-16T12:13:12.880Z,72.36
2023-04-16T12:15:54.097Z,74.27
2023-04-16T12:18:23.787Z,73.14
2023-04-16T12:20:51.461Z,74.15
2023-04-16T12:23:25.876Z,71.07
2023-04-16T12:25:53.273Z,69.34
2023-04-16T12:28:35.196Z,69.89
2023-04-16T12:31:03.671Z,70.67
2023-04-16T12:33:31.792Z,69.96
2023-04-16T12:35:58.675Z,70.27
2023-04-16T12:38:26.489Z,70.63
2023-04-16T12:40:57.133Z,69.36
2023-04-16T12:43:24.704Z,68.18
2023-04-16T12:45:51.661Z,67.63
2023-04-16T12:48:18.576Z,66.90
2023-04-16T12:50:46.256Z,66.69
2023-04-16T12:53:13.343Z,66.81
2023-04-16T12:55:40.507Z,65.25
2023-04-16T12:58:11.117Z,66.02
2023-04-16T13:00:40.014Z,65.02
2023-04-16T13:03:07.245Z,64.53
2023-04-16T13:05:34.621Z,64.52
2023-04-16T13:08:01.569Z,65.56
2023-04-16T13:10:28.839Z,65.57
2023-04-16T13:12:56.036Z,65.59
2023-04-16T13:15:23.209Z,66.81
2023-04-16T13:17:50.190Z,65.75
2023-04-16T13:20:17.339Z,66.07
2023-04-16T13:22:44.550Z,66.37
2023-04-16T13:25:11.651Z,65.65
2023-04-16T13:27:38.599Z,65.32
2023-04-16T13:30:06.324Z,65.10
2023-04-16T13:32:33.334Z,65.27
2023-04-16T13:35:22.172Z,65.90
2023-04-16T13:38:21.669Z,66.23
2023-04-16T13:40:48.860Z,64.84
2023-04-16T13:43:18.913Z,65.50
2023-04-16T13:45:46.428Z,66.29
2023-04-16T13:48:13.271Z,65.39
2023-04-16T13:50:40.536Z,65.40
2023-04-16T13:53:07.514Z,64.97
2023-04-16T13:55:34.655Z,62.71
2023-04-16T13:58:01.516Z,62.37
2023-04-16T14:00:28.656Z,62.72
2023-04-16T14:02:55.725Z,61.96
2023-04-16T14:05:26.438Z,61.87
2023-04-16T14:07:54.201Z,61.46
2023-04-16T14:10:21.375Z,60.85
2023-04-16T14:12:48.668Z,60.10
2023-04-16T14:15:15.928Z,59.71
2023-04-16T14:17:44.209Z,59.40
2023-04-16T14:20:12.908Z,60.56
2023-04-16T14:22:40.260Z,59.14
2023-04-16T14:25:07.562Z,56.51
2023-04-16T14:27:35.105Z,56.31
2023-04-16T14:30:02.154Z,55.16
2023-04-16T14:32:29.224Z,55.58
2023-04-16T14:34:56.368Z,55.97
2023-04-16T14:37:24.762Z,55.92
2023-04-16T14:39:51.865Z,56.00
2023-04-16T14:42:18.953Z,56.95
2023-04-16T14:44:45.956Z,57.68
2023-04-16T14:47:16.334Z,58.79
2023-04-16T14:49:43.189Z,58.81
2023-04-16T14:52:27.772Z,59.16
2023-04-16T14:55:08.843Z,60.77
2023-04-16T14:58:26.115Z,63.18
2023-04-16T15:00:53.460Z,65.34
2023-04-16T15:03:26.658Z,66.00
2023-04-16T15:06:19.500Z,66.28
2023-04-16T15:08:46.394Z,67.84
2023-04-16T15:11:13.394Z,68.05
2023-04-16T15:13:44.731Z,68.84
2023-04-16T15:16:12.175Z,69.51
2023-04-16T15:18:46.726Z,69.83
2023-04-16T15:21:17.373Z,70.01
2023-04-16T15:23:44.792Z,70.40
2023-04-16T15:26:12.115Z,69.49
2023-04-16T15:28:45.441Z,69.59
2023-04-16T15:31:21.923Z,68.62
2023-04-16T15:34:17.718Z,68.26
2023-04-16T15:37:24.645Z,67.99
2023-04-16T15:39:51.421Z,68.75
2023-04-16T15:42:18.407Z,67.17
2023-04-16T15:44:45.484Z,66.32
2023-04-16T15:47:12.471Z,65.61
2023-04-16T15:49:39.465Z,64.66
2023-04-16T15:52:06.432Z,64.74
2023-04-16T15:54:33.419Z,65.25
2023-04-16T15:57:00.754Z,65.08
2023-04-16T15:59:27.621Z,65.81
2023-04-16T16:01:55.023Z,66.19
2023-04-16T16:04:23.162Z,67.33
2023-04-16T16:06:50.926Z,67.45
2023-04-16T16:09:25.657Z,68.37
2023-04-16T16:12:22.996Z,68.73
2023-04-16T16:14:59.144Z,68.53
2023-04-16T16:17:52.888Z,68.39
2023-04-16T16:20:20.398Z,68.83
2023-04-16T16:22:48.542Z,69.89
2023-04-16T16:25:35.675Z,70.14
2023-04-16T16:28:11.399Z,70.23
2023-04-16T16:31:09.096Z,71.41
2023-04-16T16:33:37.862Z,70.86
2023-04-16T16:36:10.455Z,69.90
2023-04-16T16:38:38.161Z,69.68
2023-04-16T16:41:04.953Z,69.81
2023-04-16T16:43:31.991Z,70.20
2023-04-16T16:45:58.988Z,70.78
2023-04-16T16:48:25.959Z,70.32
2023-04-16T16:50:52.965Z,70.02
2023-04-16T16:53:19.977Z,70.12
2023-04-16T16:55:46.925Z,70.67
2023-04-16T16:58:13.730Z,70.19
2023-04-16T17:00:40.775Z,70.68
2023-04-16T17:03:09.173Z,70.85
2023-04-16T17:05:36.315Z,70.81
2023-04-16T17:08:03.147Z,71.99
2023-04-16T17:10:31.930Z,72.23
2023-04-16T17:12:59.195Z,73.45
2023-04-16T17:15:26.077Z,73.87
2023-04-16T17:17:53.074Z,73.62
2023-04-16T17:20:20.332Z,74.16
2023-04-16T17:22:47.375Z,73.31
2023-04-16T17:25:14.649Z,73.72
2023-04-16T17:27:41.729Z,74.65
2023-04-16T17:30:09.320Z,74.69
2023-04-16T17:32:36.438Z,74.96
2023-04-16T17:35:04.422Z,75.34
2023-04-16T17:37:32.033Z,76.02
2023-04-16T17:39:59.069Z,77.07
2023-04-16T17:42:26.129Z,78.01
2023-04-16T17:44:53.251Z,79.20
2023-04-16T17:47:20.298Z,79.77
2023-04-16T17:49:47.600Z,79.16
2023-04-16T17:52:14.520Z,80.07
2023-04-16T17:54:42.428Z,81.06
2023-04-16T17:57:09.321Z,81.66
2023-04-16T17:59:37.120Z,83.56
2023-04-16T18:02:04.699Z,85.01
2023-04-16T18:04:31.991Z,85.02
2023-04-16T18:06:59.034Z,86.37
2023-04-16T18:09:26.310Z,86.96
2023-04-16T18:11:53.907Z,87.30
2023-04-16T18:14:21.669Z,87.62
2023-04-16T18:16:49.372Z,88.35
2023-04-16T18:19:16.727Z,89.18
2023-04-16T18:21:43.998Z,89.70
2023-04-16T18:24:11.630Z,90.01
2023-04-16T18:26:40.730Z,90.47
2023-04-16T18:29:09.006Z,91.29
2023-04-16T18:31:36.131Z,92.08
2023-04-16T18:34:03.095Z,92.61
2023-04-16T18:36:30.176Z,93.01
2023-04-16T18:39:02.133Z,93.35
2023-04-16T18:41:30.833Z,93.83
2023-04-16T18:43:57.872Z,94.23
2023-04-16T18:46:25.482Z,94.46
2023-04-16T18:48:52.939Z,94.72
2023-04-16T18:51:19.979Z,94.87
2023-04-16T18:53:47.060Z,95.15
2023-04-16T18:56:14.163Z,95.69
2023-04-16T18:58:41.140Z,96.02
2023-04-16T19:01:11.413Z,96.66
2023-04-16T19:03:40.916Z,96.89
2023-04-16T19:06:08.007Z,97.33
2023-04-16T19:09:07.925Z,97.50
2023-04-16T19:11:47.478Z,97.91
2023-04-16T19:14:14.318Z,98.02
2023-04-16T19:16:41.907Z,98.20
2023-04-16T19:19:09.244Z,98.74
2023-04-16T19:21:42.418Z,99.00
2023-04-16T19:24:09.562Z,99.16
2023-04-16T19:26:36.332Z,99.81
2023-04-16T19:29:03.529Z,100.00
2023-04-16T19:31:30.780Z,100.00
2023-04-16T19:33:57.717Z,100.00
2023-04-16T19:36:32.290Z,100.00
2023-04-16T19:38:59.151Z,100.00
2023-04-16T19:41:26.023Z,99.32
2023-04-16T19:43:54.876Z,99.96
2023-04-16T19:46:22.019Z,99.84
2023-04-16T19:48:48.978Z,99.78
2023-04-16T19:51:15.988Z,99.71
2023-04-16T19:53:42.838Z,100.00
2023-04-16T19:56:09.857Z,100.00
2023-04-16T19:58:36.815Z,100.00
2023-04-16T20:01:08.828Z,100.00
2023-04-16T20:03:38.901Z,100.00
2023-04-16T20:06:07.998Z,100.00
2023-04-16T20:08:35.060Z,100.00
2023-04-16T20:11:02.081Z,100.00
2023-04-16T20:13:28.960Z,100.00
2023-04-16T20:15:56.636Z,100.00
2023-04-16T20:18:23.536Z,100.00
2023-04-16T20:20:50.607Z,100.00
2023-04-16T20:23:17.535Z,100.00
2023-04-16T20:25:46.003Z,100.00
2023-04-16T20:28:16.350Z,100.00
2023-04-16T20:30:43.313Z,100.00
2023-04-16T20:33:10.318Z,100.00
2023-04-16T20:35:37.451Z,100.00
2023-04-16T20:38:04.333Z,100.00
2023-04-16T20:40:31.266Z,100.00
2023-04-16T20:43:16.328Z,100.00
2023-04-16T20:45:46.271Z,100.00
2023-04-16T20:48:13.403Z,100.00
2023-04-16T20:50:40.848Z,100.00
2023-04-16T20:53:07.807Z,100.00
2023-04-16T20:55:34.921Z,100.00
2023-04-16T20:58:01.842Z,100.00
2023-04-16T21:00:29.391Z,100.00
2023-04-16T21:02:56.560Z,100.00
2023-04-16T21:05:23.920Z,100.00
2023-04-16T21:07:51.413Z,100.00
2023-04-16T21:10:20.376Z,100.00
2023-04-16T21:12:47.501Z,100.00
2023-04-16T21:15:14.392Z,100.00
2023-04-16T21:17:41.425Z,100.00
2023-04-16T21:20:13.499Z,100.00
2023-04-16T21:22:40.528Z,100.00
2023-04-16T21:25:08.015Z,100.00
2023-04-16T21:27:34.889Z,100.00
2023-04-16T21:30:01.796Z,100.00
2023-04-16T21:32:28.885Z,100.00
2023-04-16T21:34:55.883Z,100.00
2023-04-16T21:37:22.811Z,100.00
2023-04-16T21:39:49.933Z,100.00
2023-04-16T21:42:17.094Z,100.00
2023-04-16T21:44:44.025Z,100.00
2023-04-16T21:47:10.993Z,100.00
2023-04-16T21:49:37.869Z,100.00
2023-04-16T21:52:05.033Z,100.00
2023-04-16T21:54:31.876Z,100.00
2023-04-16T21:56:59.370Z,100.00
2023-04-16T21:59:26.153Z,100.00
2023-04-16T22:01:53.396Z,100.00
2023-04-16T22:04:26.215Z,100.00
2023-04-16T22:06:56.603Z,100.00
2023-04-16T22:09:26.219Z,100.00
2023-04-16T22:11:53.253Z,100.00
2023-04-16T22:14:20.590Z,100.00
2023-04-16T22:16:50.047Z,100.00
2023-04-16T22:19:17.809Z,100.00
2023-04-16T22:21:44.749Z,100.00
2023-04-16T22:24:11.983Z,100.00
2023-04-16T22:26:38.848Z,100.00
2023-04-16T22:29:05.915Z,100.00
2023-04-16T22:31:33.101Z,100.00
2023-04-16T22:34:01.521Z,100.00
2023-04-16T22:36:31.001Z,100.00
2023-04-16T22:38:58.087Z,100.00
2023-04-16T22:41:25.328Z,100.00
2023-04-16T22:43:52.538Z,100.00
2023-04-16T22:46:24.740Z,100.00
2023-04-16T22:48:52.026Z,100.00
2023-04-16T22:51:19.019Z,100.00
2023-04-16T22:53:46.096Z,100.00
2023-04-16T22:56:12.882Z,100.00
2023-04-16T22:58:40.340Z,100.00
2023-04-16T23:01:07.212Z,100.00
2023-04-16T23:03:34.215Z,100.00
2023-04-16T23:06:01.176Z,100.00
2023-04-16T23:08:28.144Z,100.00
2023-04-16T23:10:55.164Z,100.00
2023-04-16T23:13:22.177Z,100.00
2023-04-16T23:15:49.092Z,100.00
2023-04-16T23:18:16.384Z,100.00
2023-04-16T23:20:43.318Z,100.00
2023-04-16T23:23:10.261Z,100.00
2023-04-16T23:25:37.201Z,100.00
2023-04-16T23:28:04.253Z,100.00
2023-04-16T23:30:31.050Z,100.00
2023-04-16T23:32:57.985Z,100.00
2023-04-16T23:35:24.839Z,100.00
2023-04-16T23:37:52.008Z,100.00
2023-04-16T23:40:23.438Z,100.00
2023-04-16T23:42:50.345Z,100.00
2023-04-16T23:45:17.164Z,100.00
2023-04-16T23:47:44.813Z,100.00
2023-04-16T23:50:11.860Z,100.00
2023-04-16T23:52:38.902Z,100.00
2023-04-16T23:55:06.162Z,100.00
2023-04-16T23:57:32.961Z,100.00
2023-04-16T23:59:59.824Z,100.00
